createdAt,value
2019-02-11T00:01:18.057Z,0.40
2019-02-11T00:03:47.288Z,0.40
2019-02-11T00:06:17.837Z,0.20
2019-02-11T00:08:47.106Z,0.10
2019-02-11T00:11:16.377Z,0.73
2019-02-11T00:13:47.233Z,0.63
2019-02-11T00:16:16.808Z,0.30
2019-02-11T00:18:46.397Z,0.93
2019-02-11T00:21:15.920Z,0.27
2019-02-11T00:23:45.205Z,0.50
2019-02-11T00:26:14.746Z,0.40
2019-02-11T00:28:44.312Z,0.40
2019-02-11T00:31:14.387Z,0.40
2019-02-11T00:34:01.297Z,2.20
2019-02-11T00:36:31.798Z,0.30
2019-02-11T00:39:01.945Z,0.50
2019-02-11T00:41:31.180Z,0.40
2019-02-11T00:44:00.509Z,0.40
2019-02-11T00:46:30.247Z,0.47
2019-02-11T00:48:59.516Z,0.30
2019-02-11T00:51:30.593Z,0.83
2019-02-11T00:54:02.384Z,0.70
2019-02-11T00:56:31.590Z,0.50
2019-02-11T00:59:02.351Z,0.40
2019-02-11T01:01:33.682Z,0.37
2019-02-11T01:04:03.286Z,2.03
2019-02-11T01:06:33.371Z,0.50
2019-02-11T01:09:02.608Z,1.83
2019-02-11T01:11:31.890Z,0.50
2019-02-11T01:14:01.169Z,0.33
2019-02-11T01:16:31.780Z,0.40
2019-02-11T01:19:02.191Z,0.40
2019-02-11T01:21:31.804Z,0.47
2019-02-11T01:24:02.223Z,0.57
2019-02-11T01:26:31.444Z,0.50
2019-02-11T01:29:02.187Z,0.60
2019-02-11T01:31:32.811Z,0.50
2019-02-11T01:34:05.705Z,0.70
2019-02-11T01:36:34.940Z,0.67
2019-02-11T01:39:06.261Z,1.07
2019-02-11T01:41:36.619Z,0.63
2019-02-11T01:44:05.871Z,0.73
2019-02-11T01:46:35.138Z,0.60
2019-02-11T01:49:04.814Z,0.80
2019-02-11T01:51:36.192Z,0.60
2019-02-11T01:54:05.458Z,0.80
2019-02-11T01:56:39.704Z,0.90
2019-02-11T01:59:10.063Z,0.70
2019-02-11T02:01:39.657Z,0.87
2019-02-11T02:04:09.299Z,1.27
2019-02-11T02:06:38.885Z,0.80
2019-02-11T02:09:11.838Z,0.73
2019-02-11T02:11:41.072Z,0.70
2019-02-11T02:14:11.499Z,0.70
2019-02-11T02:16:40.545Z,0.80
2019-02-11T02:19:10.102Z,0.77
2019-02-11T02:21:40.743Z,0.50
2019-02-11T02:24:10.315Z,0.70
2019-02-11T02:26:39.533Z,0.67
2019-02-11T02:29:09.757Z,0.60
2019-02-11T02:31:39.321Z,0.77
2019-02-11T02:34:08.565Z,0.63
2019-02-11T02:36:37.768Z,0.60
2019-02-11T02:39:07.513Z,0.73
2019-02-11T02:41:36.771Z,1.23
2019-02-11T02:44:06.386Z,0.73
2019-02-11T02:46:37.739Z,0.90
2019-02-11T02:49:07.267Z,0.70
2019-02-11T02:51:37.602Z,0.90
2019-02-11T02:54:06.871Z,0.80
2019-02-11T02:56:36.864Z,0.70
2019-02-11T02:59:16.486Z,1.20
2019-02-11T03:01:45.734Z,0.90
2019-02-11T03:04:15.331Z,0.90
2019-02-11T03:06:44.529Z,0.90
2019-02-11T03:09:13.773Z,0.90
2019-02-11T03:11:43.047Z,1.00
2019-02-11T03:14:12.258Z,0.80
2019-02-11T03:16:42.333Z,1.00
2019-02-11T03:19:11.535Z,0.90
2019-02-11T03:21:41.038Z,1.00
2019-02-11T03:24:10.247Z,1.03
2019-02-11T03:26:42.152Z,0.90
2019-02-11T03:29:11.360Z,1.00
2019-02-11T03:31:40.918Z,0.93
2019-02-11T03:34:10.234Z,1.07
2019-02-11T03:36:39.896Z,0.80
2019-02-11T03:39:09.110Z,1.00
2019-02-11T03:41:41.566Z,0.80
2019-02-11T03:44:15.039Z,0.87
2019-02-11T03:46:42.284Z,1.00
2019-02-11T03:49:12.245Z,0.93
2019-02-11T03:51:41.746Z,0.80
2019-02-11T03:54:12.393Z,0.90
2019-02-11T03:56:41.633Z,0.80
2019-02-11T03:59:10.855Z,0.90
2019-02-11T04:01:40.417Z,0.90
2019-02-11T04:04:09.634Z,1.20
2019-02-11T04:06:38.915Z,0.93
2019-02-11T04:09:09.424Z,0.70
2019-02-11T04:11:38.665Z,1.10
2019-02-11T04:14:07.889Z,1.00
2019-02-11T04:16:37.145Z,0.97
2019-02-11T04:19:09.046Z,1.10
2019-02-11T04:21:38.295Z,1.00
2019-02-11T04:24:07.518Z,1.13
2019-02-11T04:26:40.535Z,2.07
2019-02-11T04:29:09.915Z,1.93
2019-02-11T04:31:39.191Z,2.53
2019-02-11T04:34:08.755Z,3.33
2019-02-11T04:36:39.487Z,21.33
2019-02-11T04:39:09.010Z,2.70
2019-02-11T04:41:38.375Z,2.97
2019-02-11T04:44:07.611Z,2.40
2019-02-11T04:46:37.352Z,1.87
2019-02-11T04:49:09.545Z,1.80
2019-02-11T04:51:40.253Z,2.70
2019-02-11T04:54:11.927Z,2.07
2019-02-11T04:56:41.477Z,1.77
2019-02-11T04:59:11.067Z,1.83
2019-02-11T05:01:40.314Z,2.30
2019-02-11T05:04:09.527Z,1.77
2019-02-11T05:06:39.168Z,1.90
2019-02-11T05:09:08.880Z,2.00
2019-02-11T05:11:38.146Z,2.20
2019-02-11T05:14:07.599Z,1.83
2019-02-11T05:16:37.092Z,2.03
2019-02-11T05:19:07.223Z,2.30
2019-02-11T05:21:37.930Z,1.97
2019-02-11T05:24:07.138Z,2.30
2019-02-11T05:26:38.826Z,2.13
2019-02-11T05:29:08.033Z,2.13
2019-02-11T05:31:37.284Z,2.47
2019-02-11T05:34:07.962Z,2.33
2019-02-11T05:36:38.476Z,2.73
2019-02-11T05:39:07.957Z,2.20
2019-02-11T05:41:38.409Z,2.40
2019-02-11T05:44:07.644Z,2.30
2019-02-11T05:46:38.518Z,2.23
2019-02-11T05:49:07.760Z,2.23
2019-02-11T05:51:37.306Z,2.73
2019-02-11T05:54:07.922Z,2.50
2019-02-11T05:56:37.415Z,2.20
2019-02-11T05:59:06.980Z,2.20
2019-02-11T06:01:36.531Z,2.40
2019-02-11T06:04:06.350Z,4.03
2019-02-11T06:06:35.847Z,2.10
2019-02-11T06:09:07.103Z,2.27
2019-02-11T06:11:36.447Z,2.27
2019-02-11T06:14:05.664Z,1.93
2019-02-11T06:16:37.085Z,2.10
2019-02-11T06:19:07.199Z,2.27
2019-02-11T06:21:38.220Z,2.10
2019-02-11T06:24:08.190Z,1.57
2019-02-11T06:26:38.420Z,1.93
2019-02-11T06:29:09.662Z,1.97
2019-02-11T06:31:38.901Z,1.90
2019-02-11T06:34:08.153Z,1.87
2019-02-11T06:36:37.630Z,1.80
2019-02-11T06:39:08.260Z,2.60
2019-02-11T06:41:37.773Z,1.73
2019-02-11T06:44:08.632Z,1.70
2019-02-11T06:46:39.188Z,1.73
2019-02-11T06:49:09.732Z,1.77
2019-02-11T06:51:39.308Z,1.83
2019-02-11T06:54:08.541Z,1.67
2019-02-11T06:56:37.779Z,1.80
2019-02-11T06:59:07.435Z,2.33
2019-02-11T07:01:36.657Z,1.90
2019-02-11T07:04:07.374Z,1.97
2019-02-11T07:06:36.887Z,1.77
2019-02-11T07:09:07.164Z,2.00
2019-02-11T07:11:36.366Z,1.73
2019-02-11T07:14:05.658Z,2.00
2019-02-11T07:16:36.969Z,2.00
2019-02-11T07:19:06.830Z,1.83
2019-02-11T07:21:36.553Z,2.13
2019-02-11T07:24:06.357Z,2.00
2019-02-11T07:26:35.579Z,1.90
2019-02-11T07:29:05.043Z,1.80
2019-02-11T07:31:39.312Z,1.70
2019-02-11T07:34:08.545Z,1.70
2019-02-11T07:36:38.337Z,1.60
2019-02-11T07:39:09.714Z,1.47
2019-02-11T07:42:04.751Z,1.47
2019-02-11T07:44:41.955Z,1.93
2019-02-11T07:47:12.477Z,1.60
2019-02-11T07:49:42.261Z,1.40
2019-02-11T07:52:11.482Z,1.53
2019-02-11T07:54:41.409Z,1.20
2019-02-11T07:57:10.653Z,1.70
2019-02-11T07:59:40.559Z,2.30
2019-02-11T08:02:09.806Z,1.90
2019-02-11T08:04:39.648Z,1.70
2019-02-11T08:07:09.172Z,2.03
2019-02-11T08:09:38.842Z,2.03
2019-02-11T08:12:09.616Z,2.80
2019-02-11T08:14:39.660Z,1.50
2019-02-11T08:17:08.897Z,2.73
2019-02-11T08:19:38.136Z,1.20
2019-02-11T08:22:07.339Z,1.20
2019-02-11T08:24:36.934Z,1.10
2019-02-11T08:27:07.020Z,1.00
2019-02-11T08:29:36.314Z,1.27
2019-02-11T08:32:08.720Z,1.00
2019-02-11T08:34:41.062Z,1.10
2019-02-11T08:37:11.164Z,1.57
2019-02-11T08:39:42.714Z,1.23
2019-02-11T08:42:11.934Z,1.10
2019-02-11T08:44:42.266Z,0.90
2019-02-11T08:47:11.481Z,0.90
2019-02-11T08:49:40.738Z,1.00
2019-02-11T08:52:10.790Z,1.50
2019-02-11T08:54:48.908Z,1.30
2019-02-11T08:57:18.114Z,1.40
2019-02-11T08:59:47.346Z,1.30
2019-02-11T09:02:16.857Z,1.30
2019-02-11T09:04:46.098Z,1.50
2019-02-11T09:07:15.307Z,1.27
2019-02-11T09:09:44.882Z,1.30
2019-02-11T09:12:16.429Z,1.50
2019-02-11T09:14:50.206Z,1.60
2019-02-11T09:17:19.605Z,1.63
2019-02-11T09:19:49.542Z,2.20
2019-02-11T09:22:18.806Z,1.60
2019-02-11T09:24:48.270Z,1.47
2019-02-11T09:27:17.914Z,1.67
2019-02-11T09:29:47.565Z,1.90
2019-02-11T09:32:18.249Z,1.57
2019-02-11T09:34:47.889Z,1.73
2019-02-11T09:37:17.096Z,1.80
2019-02-11T09:39:48.756Z,1.63
2019-02-11T09:42:18.335Z,1.70
2019-02-11T09:44:47.853Z,1.80
2019-02-11T09:47:18.678Z,2.00
2019-02-11T09:50:11.786Z,1.83
2019-02-11T09:52:43.208Z,2.07
2019-02-11T09:55:21.927Z,1.60
2019-02-11T09:57:51.148Z,2.60
2019-02-11T10:00:20.701Z,2.00
2019-02-11T10:02:50.196Z,1.97
2019-02-11T10:05:19.466Z,1.90
2019-02-11T10:07:49.523Z,2.10
2019-02-11T10:10:18.817Z,3.60
2019-02-11T10:12:48.029Z,1.80
2019-02-11T10:15:17.839Z,2.10
2019-02-11T10:17:48.250Z,2.10
2019-02-11T10:20:20.594Z,1.97
2019-02-11T10:22:50.141Z,2.20
2019-02-11T10:25:26.206Z,2.37
2019-02-11T10:27:58.041Z,2.00
2019-02-11T10:30:27.373Z,2.10
2019-02-11T10:32:56.622Z,2.17
2019-02-11T10:35:28.751Z,2.20
2019-02-11T10:37:58.204Z,1.93
2019-02-11T10:40:27.710Z,1.90
2019-02-11T10:42:56.940Z,2.27
2019-02-11T10:45:26.478Z,2.03
2019-02-11T10:47:56.863Z,2.10
2019-02-11T10:50:26.107Z,1.87
2019-02-11T10:53:02.745Z,1.90
2019-02-11T10:55:33.448Z,1.90
2019-02-11T10:58:03.926Z,2.10
2019-02-11T11:00:35.444Z,2.00
2019-02-11T11:03:05.402Z,1.73
2019-02-11T11:05:35.466Z,1.80
2019-02-11T11:08:04.741Z,1.67
2019-02-11T11:10:35.134Z,2.00
2019-02-11T11:13:05.192Z,2.00
2019-02-11T11:15:35.350Z,2.00
2019-02-11T11:18:06.446Z,1.80
2019-02-11T11:20:35.793Z,2.10
2019-02-11T11:23:05.011Z,2.00
2019-02-11T11:25:34.486Z,2.00
2019-02-11T11:28:03.747Z,2.27
2019-02-11T11:30:33.803Z,2.20
2019-02-11T11:33:05.961Z,2.50
2019-02-11T11:35:36.646Z,2.33
2019-02-11T11:38:06.274Z,2.93
2019-02-11T11:40:35.535Z,2.60
2019-02-11T11:43:04.841Z,3.10
2019-02-11T11:45:36.810Z,2.60
2019-02-11T11:48:07.467Z,2.97
2019-02-11T11:50:37.596Z,2.23
2019-02-11T11:53:12.008Z,2.80
2019-02-11T11:55:42.372Z,2.47
2019-02-11T11:58:12.361Z,2.50
2019-02-11T12:00:41.755Z,2.90
2019-02-11T12:03:13.386Z,2.77
2019-02-11T12:05:44.166Z,2.90
2019-02-11T12:08:17.332Z,3.00
2019-02-11T12:10:46.624Z,2.73
2019-02-11T12:13:22.296Z,2.73
2019-02-11T12:15:47.781Z,3.03
2019-02-11T12:18:18.391Z,3.20
2019-02-11T12:20:47.651Z,4.33
2019-02-11T12:23:20.560Z,2.97
2019-02-11T12:25:51.295Z,2.83
2019-02-11T12:28:21.257Z,3.67
2019-02-11T12:30:53.494Z,3.10
2019-02-11T12:33:21.561Z,3.30
2019-02-11T12:35:50.782Z,3.50
2019-02-11T12:38:20.028Z,3.80
2019-02-11T12:40:51.026Z,4.80
2019-02-11T12:43:23.314Z,3.73
2019-02-11T12:45:52.575Z,3.70
2019-02-11T12:48:23.453Z,3.37
2019-02-11T12:50:52.705Z,3.23
2019-02-11T12:53:22.840Z,3.57
2019-02-11T12:55:52.150Z,3.67
2019-02-11T12:58:21.676Z,4.80
2019-02-11T13:00:50.899Z,3.37
2019-02-11T13:03:20.106Z,3.27
2019-02-11T13:05:50.778Z,3.47
2019-02-11T13:08:20.221Z,3.03
2019-02-11T13:10:49.455Z,3.87
2019-02-11T13:13:21.914Z,2.90
2019-02-11T13:16:00.873Z,3.03
2019-02-11T13:18:23.900Z,3.67
2019-02-11T13:20:57.056Z,2.63
2019-02-11T13:23:28.111Z,3.07
2019-02-11T13:25:59.649Z,3.10
2019-02-11T13:28:30.374Z,3.00
2019-02-11T13:30:59.585Z,3.93
2019-02-11T13:33:31.973Z,4.50
2019-02-11T13:36:02.894Z,4.63
2019-02-11T13:38:32.448Z,4.80
2019-02-11T13:41:02.024Z,3.93
2019-02-11T13:43:31.238Z,4.10
2019-02-11T13:46:02.398Z,3.53
2019-02-11T13:48:34.201Z,4.10
2019-02-11T13:51:02.553Z,3.87
2019-02-11T13:53:32.746Z,3.80
2019-02-11T13:56:05.184Z,4.40
2019-02-11T13:58:33.123Z,3.93
2019-02-11T14:01:03.644Z,6.67
2019-02-11T14:03:32.962Z,4.30
2019-02-11T14:06:02.255Z,4.63
2019-02-11T14:08:31.904Z,5.07
2019-02-11T14:11:03.185Z,5.97
2019-02-11T14:13:33.134Z,5.27
2019-02-11T14:16:02.361Z,5.47
2019-02-11T14:18:33.208Z,5.50
2019-02-11T14:21:02.427Z,6.93
2019-02-11T14:23:33.227Z,6.10
2019-02-11T14:26:02.534Z,5.90
2019-02-11T14:28:33.802Z,5.93
2019-02-11T14:31:04.587Z,4.97
2019-02-11T14:33:38.908Z,5.20
2019-02-11T14:36:10.491Z,6.13
2019-02-11T14:38:41.293Z,5.87
2019-02-11T14:41:10.547Z,5.00
2019-02-11T14:43:43.251Z,5.53
2019-02-11T14:46:14.682Z,5.10
2019-02-11T14:48:44.595Z,7.17
2019-02-11T14:51:13.864Z,4.90
2019-02-11T14:53:43.972Z,5.97
2019-02-11T14:56:13.570Z,4.73
2019-02-11T14:58:43.159Z,4.70
2019-02-11T15:01:12.754Z,4.60
2019-02-11T15:03:41.996Z,4.43
2019-02-11T15:06:11.249Z,4.47
2019-02-11T15:08:47.290Z,5.33
2019-02-11T15:11:17.134Z,5.87
2019-02-11T15:13:46.368Z,5.00
2019-02-11T15:16:17.165Z,5.17
2019-02-11T15:18:57.719Z,5.70
2019-02-11T15:21:27.103Z,5.30
2019-02-11T15:23:56.615Z,4.13
2019-02-11T15:26:26.506Z,5.43
2019-02-11T15:28:56.681Z,5.10
2019-02-11T15:31:25.900Z,4.90
2019-02-11T15:33:55.139Z,6.40
2019-02-11T15:36:27.158Z,6.83
2019-02-11T15:38:56.985Z,5.67
2019-02-11T15:41:26.207Z,5.60
2019-02-11T15:43:55.442Z,5.00
2019-02-11T15:46:26.068Z,7.10
2019-02-11T15:48:55.335Z,10.50
2019-02-11T15:51:27.762Z,7.37
2019-02-11T15:53:56.991Z,8.57
2019-02-11T15:56:28.837Z,5.67
2019-02-11T15:58:59.860Z,6.63
2019-02-11T16:01:34.126Z,5.63
2019-02-11T16:04:06.180Z,6.57
2019-02-11T16:06:38.086Z,4.37
2019-02-11T16:09:08.199Z,5.20
2019-02-11T16:11:40.653Z,6.73
2019-02-11T16:14:09.934Z,4.20
2019-02-11T16:16:39.733Z,6.17
2019-02-11T16:19:10.330Z,6.00
2019-02-11T16:21:39.544Z,4.50
2019-02-11T16:24:09.548Z,4.17
2019-02-11T16:26:38.796Z,5.93
2019-02-11T16:29:08.354Z,4.37
2019-02-11T16:31:37.897Z,3.90
2019-02-11T16:34:07.113Z,5.97
2019-02-11T16:36:36.369Z,8.23
2019-02-11T16:39:06.262Z,3.87
2019-02-11T16:41:35.897Z,6.37
2019-02-11T16:44:05.108Z,4.43
2019-02-11T16:46:35.831Z,3.93
2019-02-11T16:49:05.318Z,4.07
2019-02-11T16:51:36.946Z,4.80
2019-02-11T16:54:07.693Z,6.83
2019-02-11T16:56:36.927Z,6.67
2019-02-11T16:59:06.145Z,5.80
2019-02-11T17:01:36.721Z,6.93
2019-02-11T17:04:06.105Z,5.70
2019-02-11T17:06:36.696Z,3.33
2019-02-11T17:09:08.911Z,4.37
2019-02-11T17:11:38.427Z,7.67
2019-02-11T17:14:07.628Z,4.07
2019-02-11T17:16:37.261Z,5.60
2019-02-11T17:19:09.321Z,6.73
2019-02-11T17:21:39.272Z,6.13
2019-02-11T17:24:08.480Z,5.87
2019-02-11T17:26:37.708Z,5.63
2019-02-11T17:29:07.240Z,7.07
2019-02-11T17:31:37.712Z,6.63
2019-02-11T17:34:09.315Z,5.90
2019-02-11T17:36:38.917Z,6.23
2019-02-11T17:39:11.245Z,8.13
2019-02-11T17:41:41.058Z,5.90
2019-02-11T17:44:10.270Z,5.37
2019-02-11T17:46:39.521Z,4.13
2019-02-11T17:49:08.744Z,6.70
2019-02-11T17:51:37.973Z,6.80
2019-02-11T17:54:10.017Z,8.23
2019-02-11T17:56:43.656Z,7.37
2019-02-11T17:59:14.141Z,7.77
2019-02-11T18:01:44.602Z,6.77
2019-02-11T18:04:15.381Z,7.17
2019-02-11T18:06:45.471Z,7.57
2019-02-11T18:09:20.321Z,6.37
2019-02-11T18:11:49.853Z,4.70
2019-02-11T18:14:19.067Z,7.33
2019-02-11T18:16:48.641Z,6.80
2019-02-11T18:19:25.780Z,6.83
2019-02-11T18:21:48.892Z,5.37
2019-02-11T18:24:18.958Z,5.50
2019-02-11T18:26:48.752Z,5.87
2019-02-11T18:29:17.989Z,6.73
2019-02-11T18:31:47.578Z,6.80
2019-02-11T18:34:16.785Z,4.20
2019-02-11T18:36:46.947Z,6.83
2019-02-11T18:39:16.095Z,7.27
2019-02-11T18:41:45.368Z,7.60
2019-02-11T18:44:14.873Z,7.77
2019-02-11T18:46:44.692Z,9.30
2019-02-11T18:49:15.469Z,9.50
2019-02-11T18:51:50.788Z,3.73
2019-02-11T18:54:21.111Z,5.97
2019-02-11T18:56:50.353Z,7.03
2019-02-11T18:59:24.788Z,6.53
2019-02-11T19:01:53.720Z,6.37
2019-02-11T19:04:22.938Z,5.27
2019-02-11T19:06:52.462Z,6.67
2019-02-11T19:09:22.473Z,6.17
2019-02-11T19:11:53.022Z,7.80
2019-02-11T19:14:22.295Z,10.33
2019-02-11T19:16:52.645Z,9.30
2019-02-11T19:19:29.640Z,4.30
2019-02-11T19:22:01.270Z,3.87
2019-02-11T19:24:30.546Z,7.47
2019-02-11T19:26:59.768Z,4.40
2019-02-11T19:29:31.593Z,4.93
2019-02-11T19:32:01.146Z,3.10
2019-02-11T19:34:30.984Z,6.10
2019-02-11T19:37:00.225Z,5.40
2019-02-11T19:39:31.058Z,2.80
2019-02-11T19:42:01.921Z,2.33
2019-02-11T19:44:31.157Z,3.57
2019-02-11T19:47:00.380Z,2.17
2019-02-11T19:49:32.936Z,2.53
2019-02-11T19:52:02.177Z,1.60
2019-02-11T19:54:31.696Z,2.23
2019-02-11T19:57:05.281Z,2.10
2019-02-11T19:59:34.517Z,2.47
2019-02-11T20:02:07.709Z,4.17
2019-02-11T20:04:36.759Z,5.83
2019-02-11T20:07:07.112Z,2.60
2019-02-11T20:09:36.672Z,3.33
2019-02-11T20:12:06.231Z,4.50
2019-02-11T20:14:35.497Z,71.73
2019-02-11T20:17:04.732Z,45.97
2019-02-11T20:19:33.949Z,9.57
2019-02-11T20:22:04.827Z,5.83
2019-02-11T20:24:34.095Z,5.07
2019-02-11T20:27:04.275Z,4.60
2019-02-11T20:29:34.102Z,5.50
2019-02-11T20:32:03.322Z,4.67
2019-02-11T20:34:32.946Z,4.10
2019-02-11T20:37:02.504Z,5.07
2019-02-11T20:39:32.376Z,4.90
2019-02-11T20:42:02.262Z,5.10
2019-02-11T20:44:32.604Z,5.33
2019-02-11T20:47:02.196Z,3.97
2019-02-11T20:49:31.433Z,4.17
2019-02-11T20:52:00.665Z,4.40
2019-02-11T20:54:30.977Z,11.13
2019-02-11T20:57:00.894Z,9.63
2019-02-11T20:59:30.124Z,5.10
2019-02-11T21:01:59.803Z,4.40
2019-02-11T21:04:29.067Z,5.00
2019-02-11T21:07:01.146Z,5.33
2019-02-11T21:09:31.588Z,5.37
2019-02-11T21:12:01.108Z,4.77
2019-02-11T21:14:30.644Z,4.57
2019-02-11T21:16:59.853Z,5.20
2019-02-11T21:19:29.104Z,5.17
2019-02-11T21:21:58.314Z,5.30
2019-02-11T21:24:28.713Z,5.83
2019-02-11T21:26:57.929Z,6.30
2019-02-11T21:29:27.479Z,4.30
2019-02-11T21:31:56.686Z,4.47
2019-02-11T21:34:25.954Z,4.43
2019-02-11T21:36:55.765Z,8.50
2019-02-11T21:39:26.382Z,8.90
2019-02-11T21:41:55.621Z,6.83
2019-02-11T21:44:26.722Z,7.57
2019-02-11T21:46:59.183Z,6.07
2019-02-11T21:49:28.703Z,10.50
2019-02-11T21:51:57.943Z,8.33
2019-02-11T21:54:30.577Z,7.23
2019-02-11T21:57:00.095Z,6.27
2019-02-11T21:59:34.249Z,7.97
2019-02-11T22:02:07.183Z,9.03
2019-02-11T22:04:36.426Z,6.33
2019-02-11T22:07:06.559Z,8.90
2019-02-11T22:09:36.188Z,10.03
2019-02-11T22:12:05.518Z,11.87
2019-02-11T22:14:34.751Z,10.23
2019-02-11T22:17:03.995Z,10.70
2019-02-11T22:19:33.516Z,13.50
2019-02-11T22:22:03.166Z,14.50
2019-02-11T22:24:34.659Z,8.63
2019-02-11T22:27:03.904Z,11.63
2019-02-11T22:29:33.112Z,9.17
2019-02-11T22:32:02.611Z,10.00
2019-02-11T22:34:31.853Z,13.77
2019-02-11T22:37:02.262Z,14.63
2019-02-11T22:39:31.878Z,10.07
2019-02-11T22:42:00.994Z,12.47
2019-02-11T22:44:31.509Z,11.77
2019-02-11T22:47:02.852Z,9.70
2019-02-11T22:49:32.105Z,10.43
2019-02-11T22:52:01.327Z,8.73
2019-02-11T22:54:30.840Z,11.93
2019-02-11T22:57:01.304Z,9.63
2019-02-11T22:59:31.897Z,8.50
2019-02-11T23:02:01.431Z,9.17
2019-02-11T23:04:32.734Z,8.73
2019-02-11T23:07:05.333Z,9.97
2019-02-11T23:09:35.412Z,10.60
2019-02-11T23:12:06.121Z,9.47
2019-02-11T23:14:35.365Z,8.17
2019-02-11T23:17:04.602Z,8.03
2019-02-11T23:19:34.150Z,9.20
2019-02-11T23:22:03.420Z,6.83
2019-02-11T23:24:32.690Z,9.77
2019-02-11T23:27:06.762Z,10.87
2019-02-11T23:29:36.451Z,9.87
2019-02-11T23:32:06.030Z,8.87
2019-02-11T23:34:35.273Z,11.53
2019-02-11T23:37:04.926Z,11.47
2019-02-11T23:39:34.142Z,9.70
2019-02-11T23:42:04.183Z,10.37
2019-02-11T23:44:34.593Z,8.87
2019-02-11T23:47:04.161Z,9.57
2019-02-11T23:49:33.412Z,14.20
2019-02-11T23:52:04.349Z,9.90
2019-02-11T23:54:33.847Z,10.47
2019-02-11T23:57:03.474Z,11.83
2019-02-11T23:59:33.673Z,10.40
